OKVIL LKTB-LKJI
Flight info
| Callsign | OKVIL |
|---|---|
| Flight time | 0h 19m |
| Altitude | 4500 |
| Route | NOVEMBER DCT LKKA DCT |
| Aircraft | C208/L-SDFYZ/S |
Departure
| Time | 2026-05-08 23:19 |
|---|---|
| Airport | Brno-Tuřany Airport (LKTB) |
Arrival
| Time | 2026-05-08 23:38 |
|---|---|
| Airport | Jihlava Airfield (LKJI) |
| Time | Latitude | Longitude | Altitude | Speed | Heading |
|---|---|---|---|---|---|
| 2026-05-08 23:16 | 49.15559 | 16.68713 | 786 ft | 0 kts | 57° |
| 2026-05-08 23:17 | 49.15558 | 16.68720 | 787 ft | 6 kts | 115° |
| 2026-05-08 23:17 | 49.15527 | 16.68742 | 786 ft | 14 kts | 159° |
| 2026-05-08 23:17 | 49.15465 | 16.68738 | 786 ft | 7 kts | 187° |
| 2026-05-08 23:17 | 49.15390 | 16.68692 | 787 ft | 13 kts | 236° |
| 2026-05-08 23:18 | 49.15379 | 16.68532 | 788 ft | 17 kts | 215° |
| 2026-05-08 23:18 | 49.15313 | 16.68508 | 787 ft | 2 kts | 188° |
| 2026-05-08 23:18 | 49.15226 | 16.68496 | 781 ft | 20 kts | 152° |
| 2026-05-08 23:18 | 49.15182 | 16.68819 | 782 ft | 54 kts | 98° |
| 2026-05-08 23:19 | 49.15105 | 16.69688 | 811 ft | 105 kts | 96° |
| 2026-05-08 23:19 | 49.14983 | 16.70834 | 1112 ft | 113 kts | 98° |
| 2026-05-08 23:19 | 49.14775 | 16.72079 | 1331 ft | 126 kts | 102° |
| 2026-05-08 23:19 | 49.14581 | 16.73343 | 1701 ft | 120 kts | 96° |
| 2026-05-08 23:20 | 49.14916 | 16.74323 | 1928 ft | 121 kts | 20° |
| 2026-05-08 23:20 | 49.15787 | 16.74451 | 2033 ft | 135 kts | 8° |
| 2026-05-08 23:20 | 49.16760 | 16.74369 | 2006 ft | 152 kts | 336° |
| 2026-05-08 23:20 | 49.17247 | 16.72938 | 2101 ft | 167 kts | 275° |
| 2026-05-08 23:21 | 49.17307 | 16.71123 | 2085 ft | 173 kts | 279° |
| 2026-05-08 23:21 | 49.17371 | 16.69257 | 2012 ft | 178 kts | 276° |
| 2026-05-08 23:21 | 49.17831 | 16.67660 | 1948 ft | 164 kts | 326° |
| 2026-05-08 23:21 | 49.18679 | 16.66491 | 1997 ft | 162 kts | 323° |
| 2026-05-08 23:22 | 49.19492 | 16.65295 | 2035 ft | 163 kts | 321° |
| 2026-05-08 23:22 | 49.20291 | 16.64116 | 2114 ft | 159 kts | 322° |
| 2026-05-08 23:22 | 49.21090 | 16.62956 | 2150 ft | 161 kts | 320° |
| 2026-05-08 23:22 | 49.21914 | 16.61748 | 2099 ft | 164 kts | 321° |
| 2026-05-08 23:23 | 49.22784 | 16.60622 | 2103 ft | 163 kts | 323° |
| 2026-05-08 23:23 | 49.23701 | 16.59594 | 1979 ft | 167 kts | 327° |
| 2026-05-08 23:23 | 49.24704 | 16.58719 | 1899 ft | 167 kts | 339° |
| 2026-05-08 23:23 | 49.25788 | 16.58111 | 1887 ft | 164 kts | 342° |
| 2026-05-08 23:24 | 49.26880 | 16.57552 | 1826 ft | 164 kts | 341° |
| 2026-05-08 23:24 | 49.27933 | 16.56937 | 1902 ft | 160 kts | 337° |
| 2026-05-08 23:24 | 49.28744 | 16.55900 | 2208 ft | 151 kts | 301° |
| 2026-05-08 23:24 | 49.28983 | 16.54288 | 2193 ft | 160 kts | 285° |
| 2026-05-08 23:25 | 49.29375 | 16.52612 | 2002 ft | 169 kts | 292° |
| 2026-05-08 23:25 | 49.29797 | 16.50955 | 2025 ft | 166 kts | 295° |
| 2026-05-08 23:25 | 49.30249 | 16.49333 | 2062 ft | 164 kts | 294° |
| 2026-05-08 23:25 | 49.30674 | 16.47749 | 2127 ft | 162 kts | 294° |
| 2026-05-08 23:26 | 49.31056 | 16.46137 | 2246 ft | 162 kts | 291° |
| 2026-05-08 23:26 | 49.31418 | 16.44497 | 2341 ft | 163 kts | 291° |
| 2026-05-08 23:26 | 49.31788 | 16.42888 | 2501 ft | 156 kts | 294° |
| 2026-05-08 23:26 | 49.32196 | 16.41291 | 2577 ft | 163 kts | 293° |
| 2026-05-08 23:27 | 49.32586 | 16.39617 | 2566 ft | 167 kts | 291° |
| 2026-05-08 23:27 | 49.32950 | 16.37916 | 2634 ft | 166 kts | 290° |
| 2026-05-08 23:27 | 49.33268 | 16.36230 | 2728 ft | 165 kts | 288° |
| 2026-05-08 23:27 | 49.33607 | 16.34501 | 2682 ft | 172 kts | 289° |
| 2026-05-08 23:28 | 49.33968 | 16.32727 | 2576 ft | 174 kts | 290° |
| 2026-05-08 23:28 | 49.34344 | 16.30976 | 2514 ft | 178 kts | 290° |
| 2026-05-08 23:28 | 49.34715 | 16.29192 | 2553 ft | 173 kts | 288° |
| 2026-05-08 23:28 | 49.34982 | 16.27417 | 2531 ft | 171 kts | 283° |
| 2026-05-08 23:29 | 49.35222 | 16.25643 | 2560 ft | 169 kts | 283° |
| 2026-05-08 23:29 | 49.35432 | 16.23877 | 2644 ft | 165 kts | 281° |
| 2026-05-08 23:29 | 49.35545 | 16.22196 | 2862 ft | 157 kts | 277° |
| 2026-05-08 23:29 | 49.35751 | 16.20486 | 2845 ft | 165 kts | 283° |
| 2026-05-08 23:30 | 49.36008 | 16.18763 | 2919 ft | 163 kts | 285° |
| 2026-05-08 23:30 | 49.36299 | 16.17104 | 2980 ft | 164 kts | 286° |
| 2026-05-08 23:30 | 49.36609 | 16.15423 | 3082 ft | 162 kts | 287° |
| 2026-05-08 23:30 | 49.36918 | 16.13729 | 3027 ft | 169 kts | 285° |
| 2026-05-08 23:31 | 49.37075 | 16.11911 | 2898 ft | 173 kts | 276° |
| 2026-05-08 23:31 | 49.37198 | 16.10084 | 2939 ft | 169 kts | 277° |
| 2026-05-08 23:31 | 49.37372 | 16.08323 | 2975 ft | 167 kts | 281° |
| 2026-05-08 23:31 | 49.37586 | 16.06552 | 2952 ft | 170 kts | 282° |
| 2026-05-08 23:32 | 49.37802 | 16.04756 | 2941 ft | 171 kts | 280° |
| 2026-05-08 23:32 | 49.37937 | 16.02959 | 2993 ft | 167 kts | 276° |
| 2026-05-08 23:32 | 49.38044 | 16.01204 | 3028 ft | 168 kts | 276° |
| 2026-05-08 23:32 | 49.38204 | 15.99396 | 2950 ft | 173 kts | 279° |
| 2026-05-08 23:33 | 49.38427 | 15.97610 | 2902 ft | 173 kts | 283° |
| 2026-05-08 23:33 | 49.38666 | 15.95816 | 2945 ft | 168 kts | 281° |
| 2026-05-08 23:33 | 49.38869 | 15.94053 | 2930 ft | 171 kts | 280° |
| 2026-05-08 23:33 | 49.39058 | 15.92249 | 2923 ft | 171 kts | 279° |
| 2026-05-08 23:34 | 49.39233 | 15.90440 | 2952 ft | 169 kts | 279° |
| 2026-05-08 23:34 | 49.39422 | 15.88703 | 3007 ft | 167 kts | 281° |
| 2026-05-08 23:34 | 49.39598 | 15.86955 | 3103 ft | 164 kts | 278° |
| 2026-05-08 23:34 | 49.39756 | 15.85192 | 3094 ft | 167 kts | 279° |
| 2026-05-08 23:35 | 49.39942 | 15.83443 | 3167 ft | 165 kts | 280° |
| 2026-05-08 23:35 | 49.40167 | 15.81711 | 3231 ft | 165 kts | 281° |
| 2026-05-08 23:35 | 49.40346 | 15.80004 | 3324 ft | 162 kts | 280° |
| 2026-05-08 23:35 | 49.40534 | 15.78305 | 3444 ft | 161 kts | 281° |
| 2026-05-08 23:36 | 49.40759 | 15.76618 | 3510 ft | 162 kts | 281° |
| 2026-05-08 23:36 | 49.40912 | 15.74879 | 3486 ft | 166 kts | 277° |
| 2026-05-08 23:36 | 49.40997 | 15.73699 | 3445 ft | 169 kts | 277° |
| 2026-05-08 23:36 | 49.41208 | 15.71299 | 3345 ft | 172 kts | 279° |
| 2026-05-08 23:37 | 49.41322 | 15.70134 | 3239 ft | 154 kts | 271° |
| 2026-05-08 23:37 | 49.41197 | 15.68683 | 2955 ft | 130 kts | 271° |
| 2026-05-08 23:37 | 49.41357 | 15.67381 | 2567 ft | 106 kts | 284° |
| 2026-05-08 23:37 | 49.41556 | 15.66167 | 2233 ft | 78 kts | 285° |
| 2026-05-08 23:38 | 49.41647 | 15.65611 | 2118 ft | 83 kts | 286° |
| 2026-05-08 23:38 | 49.41766 | 15.64833 | 1942 ft | 71 kts | 285° |
| 2026-05-08 23:38 | 49.41867 | 15.64155 | 1836 ft | 60 kts | 284° |
| 2026-05-08 23:38 | 49.41962 | 15.63597 | 1808 ft | 44 kts | 285° |
| 2026-05-08 23:39 | 49.42059 | 15.63367 | 1809 ft | 20 kts | 36° |
| 2026-05-08 23:39 | 49.42085 | 15.63556 | 1812 ft | 30 kts | 90° |
| 2026-05-08 23:39 | 49.42059 | 15.63779 | 1815 ft | 18 kts | 102° |
| 2026-05-08 23:39 | 49.42050 | 15.63980 | 1818 ft | 11 kts | 67° |
| 2026-05-08 23:40 | 49.42066 | 15.64011 | 1818 ft | 0 kts | 33° |
| 2026-05-08 23:40 | 49.42076 | 15.64020 | 1818 ft | 0 kts | 33° |